Pedro Velho, Brazil
Current Conditions -  °F | °C
As of 3:00 PM on Thursday 30 Oct 2014 (Local Time) from SBNT Reporting Station
Scattered Clouds Scattered Clouds  
Wind Chill: 84°   Ceiling: Unl
Heat Index: 86°   Visibility: 6mi
Dew Point: 66°   Wind: 21mph
Humidity: 55%   Direction: 120°ESE
Pressure: 29.88"   Gusts: NA
Location:  6.44°S, 35.22°W
Report Text: SBNT 301800Z 12018KT 9999 SCT021 29/19 Q1012
Loading
Personal Weather Stations






























Interactive Weather Map
Tropical Storm Tracking
New forecast layout! Learn more

10-Day Weather Forecast

Advertisements
Track Severe Weather on mobile